createdAt,value
2024-05-09T00:01:16.362Z,62.20
2024-05-09T00:02:48.489Z,62.30
2024-05-09T00:04:20.538Z,62.30
2024-05-09T00:05:52.799Z,62.30
2024-05-09T00:07:24.819Z,62.20
2024-05-09T00:08:56.853Z,62.20
2024-05-09T00:10:35.586Z,62.30
2024-05-09T00:12:10.267Z,62.40
2024-05-09T00:13:42.648Z,62.40
2024-05-09T00:15:14.816Z,62.50
2024-05-09T00:16:49.515Z,62.50
2024-05-09T00:18:21.754Z,62.50
2024-05-09T00:19:53.993Z,62.30
2024-05-09T00:21:26.062Z,62.30
2024-05-09T00:22:58.123Z,62.50
2024-05-09T00:24:30.209Z,62.40
2024-05-09T00:26:02.322Z,62.50
2024-05-09T00:27:35.679Z,62.60
2024-05-09T00:29:07.766Z,62.80
2024-05-09T00:30:40.003Z,62.60
2024-05-09T00:32:12.315Z,62.70
2024-05-09T00:33:44.608Z,62.70
2024-05-09T00:35:16.844Z,62.60
2024-05-09T00:36:48.958Z,62.60
2024-05-09T00:38:21.151Z,62.70
2024-05-09T00:39:53.335Z,62.80
2024-05-09T00:41:25.439Z,62.70
2024-05-09T00:42:57.523Z,62.60
2024-05-09T00:44:29.726Z,62.70
2024-05-09T00:46:02.520Z,62.80
2024-05-09T00:47:34.808Z,62.90
2024-05-09T00:49:07.296Z,63.00
2024-05-09T00:50:42.403Z,62.80
2024-05-09T00:52:14.641Z,62.90
2024-05-09T00:53:47.311Z,62.80
2024-05-09T00:55:19.858Z,62.80
2024-05-09T00:56:53.425Z,62.80
2024-05-09T00:58:28.941Z,62.90
2024-05-09T01:00:01.598Z,62.80
2024-05-09T01:01:35.202Z,62.90
2024-05-09T01:03:12.536Z,63.00
2024-05-09T01:04:46.245Z,62.90
2024-05-09T01:06:21.366Z,62.80
2024-05-09T01:07:53.550Z,63.00
2024-05-09T01:09:25.626Z,62.80
2024-05-09T01:10:57.914Z,62.90
2024-05-09T01:12:30.019Z,63.00
2024-05-09T01:14:02.231Z,63.00
2024-05-09T01:15:35.645Z,63.00
2024-05-09T01:17:08.605Z,63.10
2024-05-09T01:18:41.011Z,63.10
2024-05-09T01:20:19.995Z,63.10
2024-05-09T01:21:59.367Z,63.10
2024-05-09T01:23:31.589Z,63.00
2024-05-09T01:25:04.017Z,63.00
2024-05-09T01:26:36.146Z,63.20
2024-05-09T01:28:08.278Z,63.20
2024-05-09T01:29:40.355Z,63.30
2024-05-09T01:31:15.826Z,63.30
2024-05-09T01:32:47.989Z,63.30
2024-05-09T01:34:20.204Z,63.30
2024-05-09T01:35:52.378Z,63.20
2024-05-09T01:37:24.362Z,63.20
2024-05-09T01:38:56.562Z,63.30
2024-05-09T01:40:36.653Z,63.30
2024-05-09T01:42:11.447Z,63.20
2024-05-09T01:43:43.559Z,63.10
2024-05-09T01:45:15.766Z,63.20
2024-05-09T01:46:47.803Z,63.00
2024-05-09T01:48:20.043Z,63.00
2024-05-09T01:49:52.232Z,63.10
2024-05-09T01:51:24.389Z,63.10
2024-05-09T01:52:56.475Z,63.20
2024-05-09T01:54:28.714Z,63.20
2024-05-09T01:56:00.910Z,63.10
2024-05-09T01:57:33.136Z,63.10
2024-05-09T01:59:06.756Z,63.20
2024-05-09T02:00:42.287Z,63.30
2024-05-09T02:02:15.671Z,63.40
2024-05-09T02:03:48.194Z,63.40
2024-05-09T02:05:20.426Z,63.40
2024-05-09T02:06:52.508Z,63.50
2024-05-09T02:08:24.620Z,63.50
2024-05-09T02:09:56.712Z,63.50
2024-05-09T02:11:28.753Z,63.50
2024-05-09T02:13:01.139Z,63.60
2024-05-09T02:14:33.310Z,63.40
2024-05-09T02:16:11.721Z,63.40
2024-05-09T02:17:44.099Z,63.50
2024-05-09T02:19:16.662Z,63.50
2024-05-09T02:20:49.009Z,63.50
2024-05-09T02:22:21.166Z,63.50
2024-05-09T02:23:53.168Z,63.40
2024-05-09T02:25:27.036Z,63.50
2024-05-09T02:26:59.030Z,63.60
2024-05-09T02:28:31.144Z,63.70
2024-05-09T02:30:04.692Z,63.90
2024-05-09T02:31:39.855Z,64.00
2024-05-09T02:33:14.018Z,64.10
2024-05-09T02:34:46.761Z,64.90
2024-05-09T02:36:18.812Z,63.80
2024-05-09T02:37:50.922Z,63.80
2024-05-09T02:39:23.064Z,63.70
2024-05-09T02:40:55.168Z,63.70
2024-05-09T02:42:27.227Z,63.70
2024-05-09T02:43:59.295Z,63.70
2024-05-09T02:45:31.391Z,63.80
2024-05-09T02:47:03.647Z,63.70
2024-05-09T02:48:35.758Z,63.80
2024-05-09T02:50:08.443Z,63.80
2024-05-09T02:51:40.531Z,63.80
2024-05-09T02:53:14.062Z,63.90
2024-05-09T02:54:46.431Z,64.00
2024-05-09T02:56:18.532Z,63.80
2024-05-09T02:57:50.569Z,63.90
2024-05-09T02:59:22.951Z,63.90
2024-05-09T03:00:55.113Z,64.10
2024-05-09T03:02:27.251Z,64.30
2024-05-09T03:03:59.486Z,64.40
2024-05-09T03:05:32.043Z,64.50
2024-05-09T03:07:04.511Z,64.60
2024-05-09T03:08:36.653Z,64.60
2024-05-09T03:10:18.163Z,64.80
2024-05-09T03:11:54.715Z,64.90
2024-05-09T03:13:26.836Z,64.90
2024-05-09T03:14:58.884Z,65.00
2024-05-09T03:16:30.889Z,65.10
2024-05-09T03:18:04.190Z,65.20
2024-05-09T03:19:37.346Z,65.30
2024-05-09T03:21:09.831Z,65.40
2024-05-09T03:22:41.956Z,65.60
2024-05-09T03:24:13.984Z,65.60
2024-05-09T03:25:46.025Z,65.80
2024-05-09T03:27:18.277Z,66.00
2024-05-09T03:28:50.390Z,66.00
2024-05-09T03:30:35.796Z,66.10
2024-05-09T03:32:13.105Z,66.20
2024-05-09T03:33:45.541Z,66.20
2024-05-09T03:35:17.684Z,66.40
2024-05-09T03:36:49.802Z,66.40
2024-05-09T03:38:21.875Z,66.50
2024-05-09T03:39:54.089Z,66.50
2024-05-09T03:41:26.198Z,66.70
2024-05-09T03:42:58.778Z,66.80
2024-05-09T03:44:30.920Z,66.90
2024-05-09T03:46:03.132Z,67.10
2024-05-09T03:47:35.584Z,67.20
2024-05-09T03:49:08.183Z,67.30
2024-05-09T03:50:40.989Z,67.40
2024-05-09T03:52:13.135Z,67.40
2024-05-09T03:53:45.171Z,67.40
2024-05-09T03:55:17.342Z,67.50
2024-05-09T03:56:49.380Z,67.50
2024-05-09T03:58:21.507Z,67.40
2024-05-09T03:59:53.510Z,67.50
2024-05-09T04:01:25.830Z,67.60
2024-05-09T04:02:59.821Z,67.50
2024-05-09T04:04:32.289Z,67.60
2024-05-09T04:06:04.852Z,67.60
2024-05-09T04:07:38.022Z,67.60
2024-05-09T04:09:10.025Z,67.60
2024-05-09T04:10:42.181Z,67.50
2024-05-09T04:12:14.291Z,67.60
2024-05-09T04:13:46.396Z,67.70
2024-05-09T04:15:18.492Z,67.70
2024-05-09T04:16:50.714Z,67.70
2024-05-09T04:18:22.856Z,67.70
2024-05-09T04:19:55.612Z,67.60
2024-05-09T04:21:28.195Z,67.70
2024-05-09T04:23:00.343Z,67.70
2024-05-09T04:24:32.385Z,67.70
2024-05-09T04:26:05.066Z,67.70
2024-05-09T04:27:37.228Z,67.90
2024-05-09T04:29:09.312Z,67.80
2024-05-09T04:30:42.287Z,67.90
2024-05-09T04:32:14.946Z,67.90
2024-05-09T04:33:47.093Z,68.00
2024-05-09T04:35:21.097Z,67.90
2024-05-09T04:36:53.203Z,68.00
2024-05-09T04:38:25.383Z,68.00
2024-05-09T04:39:57.687Z,68.10
2024-05-09T04:41:30.491Z,68.10
2024-05-09T04:43:03.592Z,68.00
2024-05-09T04:44:35.690Z,68.00
2024-05-09T04:46:07.722Z,68.00
2024-05-09T04:47:39.915Z,68.00
2024-05-09T04:49:12.334Z,68.10
2024-05-09T04:50:44.553Z,68.10
2024-05-09T04:52:16.722Z,68.10
2024-05-09T04:53:48.926Z,68.10
2024-05-09T04:55:21.021Z,68.20
2024-05-09T04:56:53.431Z,68.00
2024-05-09T04:58:25.453Z,68.10
2024-05-09T04:59:58.987Z,68.20
2024-05-09T05:01:31.033Z,68.20
2024-05-09T05:03:10.217Z,68.20
2024-05-09T05:04:44.488Z,68.30
2024-05-09T05:06:16.725Z,68.20
2024-05-09T05:07:48.827Z,68.40
2024-05-09T05:09:20.874Z,68.40
2024-05-09T05:10:53.065Z,68.40
2024-05-09T05:12:48.591Z,68.40
2024-05-09T05:14:20.706Z,68.50
2024-05-09T05:15:56.941Z,68.50
2024-05-09T05:17:30.357Z,68.50
2024-05-09T05:19:02.742Z,68.40
2024-05-09T05:20:34.896Z,68.50
2024-05-09T05:22:07.043Z,68.70
2024-05-09T05:23:40.994Z,68.80
2024-05-09T05:25:13.154Z,69.00
2024-05-09T05:26:45.257Z,69.00
2024-05-09T05:28:17.532Z,69.10
2024-05-09T05:29:49.666Z,69.20
2024-05-09T05:31:21.818Z,69.20
2024-05-09T05:32:54.010Z,69.10
2024-05-09T05:34:26.110Z,69.10
2024-05-09T05:35:58.144Z,69.90
2024-05-09T05:37:30.234Z,69.20
2024-05-09T05:39:02.289Z,69.20
2024-05-09T05:40:40.352Z,69.20
2024-05-09T05:42:13.011Z,69.30
2024-05-09T05:43:45.149Z,69.30
2024-05-09T05:45:17.165Z,69.30
2024-05-09T05:46:49.316Z,69.20
2024-05-09T05:48:21.562Z,69.10
2024-05-09T05:49:53.740Z,69.20
2024-05-09T05:51:27.005Z,69.20
2024-05-09T05:52:59.078Z,69.30
2024-05-09T05:54:31.138Z,69.30
2024-05-09T05:56:04.403Z,69.20
2024-05-09T05:57:36.515Z,69.40
2024-05-09T05:59:08.548Z,69.00
2024-05-09T06:00:42.096Z,68.80
2024-05-09T06:02:14.822Z,69.00
2024-05-09T06:03:47.197Z,68.90
2024-05-09T06:05:19.538Z,69.10
2024-05-09T06:06:52.554Z,69.00
2024-05-09T06:08:27.119Z,69.00
2024-05-09T06:10:00.916Z,68.90
2024-05-09T06:11:33.103Z,68.60
2024-05-09T06:13:05.287Z,68.60
2024-05-09T06:14:37.565Z,68.70
2024-05-09T06:16:09.694Z,68.70
2024-05-09T06:17:41.885Z,68.70
2024-05-09T06:19:14.150Z,68.90
2024-05-09T06:20:46.307Z,68.80
2024-05-09T06:22:18.468Z,68.80
2024-05-09T06:23:50.669Z,69.00
2024-05-09T06:25:23.303Z,69.00
2024-05-09T06:26:55.358Z,69.10
2024-05-09T06:28:27.336Z,68.90
2024-05-09T06:29:59.394Z,68.80
2024-05-09T06:31:31.463Z,68.70
2024-05-09T06:33:05.966Z,68.60
2024-05-09T06:34:38.361Z,68.70
2024-05-09T06:36:10.520Z,68.70
2024-05-09T06:37:42.552Z,68.80
2024-05-09T06:39:14.738Z,68.80
2024-05-09T06:40:46.841Z,69.00
2024-05-09T06:42:18.911Z,69.10
2024-05-09T06:43:51.024Z,69.10
2024-05-09T06:45:23.262Z,69.10
2024-05-09T06:46:58.062Z,69.20
2024-05-09T06:48:31.710Z,69.10
2024-05-09T06:50:08.212Z,69.10
2024-05-09T06:51:42.481Z,69.10
2024-05-09T06:53:15.528Z,69.00
2024-05-09T06:54:47.657Z,69.00
2024-05-09T06:56:19.743Z,69.00
2024-05-09T06:57:51.815Z,69.10
2024-05-09T06:59:23.884Z,69.00
2024-05-09T07:00:55.972Z,69.00
2024-05-09T07:02:28.121Z,68.70
2024-05-09T07:04:00.330Z,68.70
2024-05-09T07:05:33.235Z,68.70
2024-05-09T07:07:07.395Z,68.70
2024-05-09T07:08:39.544Z,68.60
2024-05-09T07:10:21.582Z,68.50
2024-05-09T07:11:57.642Z,68.40
2024-05-09T07:13:29.745Z,68.20
2024-05-09T07:15:01.792Z,68.20
2024-05-09T07:16:34.395Z,68.20
2024-05-09T07:18:20.598Z,68.20
2024-05-09T07:19:53.533Z,68.20
2024-05-09T07:21:26.020Z,68.00
2024-05-09T07:22:58.668Z,67.90
2024-05-09T07:24:30.888Z,68.20
2024-05-09T07:26:02.946Z,67.60
2024-05-09T07:27:35.206Z,67.50
2024-05-09T07:29:07.325Z,67.70
2024-05-09T07:30:39.484Z,67.30
2024-05-09T07:32:11.662Z,67.10
2024-05-09T07:33:43.853Z,66.90
2024-05-09T07:35:16.150Z,66.60
2024-05-09T07:36:48.260Z,66.60
2024-05-09T07:38:20.483Z,66.40
2024-05-09T07:39:52.541Z,66.40
2024-05-09T07:41:24.678Z,66.30
2024-05-09T07:42:56.679Z,65.90
2024-05-09T07:44:30.393Z,66.10
2024-05-09T07:48:29.177Z,65.80
2024-05-09T07:50:53.878Z,65.50
2024-05-09T07:53:33.931Z,65.50
2024-05-09T07:54:31.036Z,65.40
2024-05-09T07:56:03.613Z,65.70
2024-05-09T07:57:35.942Z,64.40
2024-05-09T07:59:08.066Z,63.80
2024-05-09T08:00:40.198Z,63.30
2024-05-09T08:02:12.532Z,62.80
2024-05-09T08:03:45.126Z,62.30
2024-05-09T08:05:17.466Z,62.00
2024-05-09T08:06:49.604Z,61.60
2024-05-09T08:08:23.388Z,60.10
2024-05-09T08:09:55.530Z,58.70
2024-05-09T08:11:27.789Z,58.20
2024-05-09T08:12:59.833Z,57.50
2024-05-09T08:14:32.063Z,56.30
2024-05-09T08:16:04.732Z,55.60
2024-05-09T08:17:36.942Z,54.90
2024-05-09T08:19:09.126Z,55.20
2024-05-09T08:20:42.283Z,55.00
2024-05-09T08:22:15.276Z,54.60
2024-05-09T08:23:47.383Z,54.00
2024-05-09T08:25:19.500Z,53.30
2024-05-09T08:26:51.593Z,52.80
2024-05-09T08:28:23.792Z,52.50
2024-05-09T08:29:55.900Z,51.80
2024-05-09T08:31:27.997Z,51.70
2024-05-09T08:33:00.103Z,51.70
2024-05-09T08:34:32.173Z,51.00
2024-05-09T08:36:04.464Z,50.60
2024-05-09T08:37:38.920Z,50.10
2024-05-09T08:39:12.523Z,49.20
2024-05-09T08:40:44.756Z,49.00
2024-05-09T08:42:21.053Z,49.10
2024-05-09T08:43:53.071Z,49.20
2024-05-09T08:45:26.593Z,48.70
2024-05-09T08:46:59.818Z,48.30
2024-05-09T08:48:36.318Z,48.30
2024-05-09T08:50:20.250Z,48.80
2024-05-09T08:52:01.151Z,49.20
2024-05-09T08:53:33.708Z,49.10
2024-05-09T08:55:06.437Z,48.80
2024-05-09T08:56:45.283Z,48.80
2024-05-09T08:58:19.368Z,48.20
2024-05-09T08:59:53.892Z,48.30
2024-05-09T09:01:30.932Z,48.60
2024-05-09T09:03:05.740Z,49.30
2024-05-09T09:04:43.009Z,50.10
2024-05-09T09:06:21.416Z,51.00
2024-05-09T09:07:53.456Z,51.10
2024-05-09T09:09:27.518Z,51.00
2024-05-09T09:10:59.818Z,51.00
2024-05-09T09:12:32.397Z,50.40
2024-05-09T09:14:04.464Z,49.70
2024-05-09T09:15:48.052Z,49.20
2024-05-09T09:17:20.152Z,48.10
2024-05-09T09:18:53.412Z,48.30
2024-05-09T09:20:34.159Z,47.40
2024-05-09T09:22:09.391Z,47.30
2024-05-09T09:23:41.564Z,47.50
2024-05-09T09:25:13.714Z,46.90
2024-05-09T09:26:57.415Z,46.60
2024-05-09T09:28:37.568Z,46.10
2024-05-09T09:30:22.927Z,45.30
2024-05-09T09:32:10.587Z,46.00
2024-05-09T09:33:43.325Z,45.10
2024-05-09T09:35:16.975Z,45.00
2024-05-09T09:38:24.154Z,44.00
2024-05-09T09:39:58.789Z,44.10
2024-05-09T09:41:32.487Z,43.70
2024-05-09T09:43:08.051Z,43.70
2024-05-09T09:44:42.408Z,44.30
2024-05-09T09:46:19.412Z,43.70
2024-05-09T09:48:00.023Z,43.40
2024-05-09T09:49:36.851Z,42.80
2024-05-09T09:51:09.836Z,42.80
2024-05-09T09:52:41.918Z,42.90
2024-05-09T09:54:14.163Z,42.70
2024-05-09T09:55:48.190Z,42.40
2024-05-09T09:57:21.393Z,41.90
2024-05-09T09:58:56.272Z,41.70
2024-05-09T10:00:33.034Z,41.40
2024-05-09T10:02:06.302Z,41.20
2024-05-09T10:03:38.892Z,41.00
2024-05-09T10:05:11.583Z,41.00
2024-05-09T10:06:56.651Z,40.90
2024-05-09T10:08:29.851Z,40.50
2024-05-09T10:10:02.005Z,40.90
2024-05-09T10:11:42.073Z,40.40
2024-05-09T10:13:21.143Z,40.80
2024-05-09T10:14:54.664Z,40.20
2024-05-09T10:16:31.551Z,40.10
2024-05-09T10:18:07.344Z,40.00
2024-05-09T10:19:39.572Z,40.20
2024-05-09T10:21:19.643Z,41.00
2024-05-09T10:22:51.763Z,39.50
2024-05-09T10:24:24.402Z,40.30
2024-05-09T10:26:01.124Z,40.20
2024-05-09T10:27:33.976Z,40.40
2024-05-09T10:29:17.473Z,40.60
2024-05-09T10:31:03.283Z,39.80
2024-05-09T10:32:40.789Z,39.90
2024-05-09T10:34:34.545Z,40.00
2024-05-09T10:36:13.681Z,39.80
2024-05-09T10:37:46.529Z,39.80
2024-05-09T10:39:22.824Z,40.30
2024-05-09T10:40:57.140Z,40.10
2024-05-09T10:42:30.145Z,39.70
2024-05-09T10:44:02.258Z,40.00
2024-05-09T10:45:35.640Z,40.00
2024-05-09T10:47:07.919Z,39.70
2024-05-09T10:48:43.539Z,39.70
2024-05-09T10:50:22.576Z,39.40
2024-05-09T10:52:04.163Z,39.30
2024-05-09T10:53:43.463Z,38.90
2024-05-09T10:55:15.666Z,38.70
2024-05-09T10:56:56.845Z,38.70
2024-05-09T10:58:28.880Z,38.00
2024-05-09T11:00:01.741Z,38.50
2024-05-09T11:01:34.213Z,38.30
2024-05-09T11:03:06.541Z,38.00
2024-05-09T11:04:40.297Z,38.70
2024-05-09T11:06:14.252Z,37.50
2024-05-09T11:07:46.383Z,37.60
2024-05-09T11:09:18.516Z,37.50
2024-05-09T11:10:53.601Z,37.50
2024-05-09T11:12:26.582Z,37.40
2024-05-09T11:13:58.580Z,37.60
2024-05-09T11:15:40.394Z,37.10
2024-05-09T11:17:12.426Z,37.20
2024-05-09T11:18:52.300Z,37.90
2024-05-09T11:20:35.701Z,37.60
2024-05-09T11:22:08.384Z,37.50
2024-05-09T11:23:40.928Z,38.10
2024-05-09T11:25:13.294Z,38.00
2024-05-09T11:26:45.504Z,37.80
2024-05-09T11:28:21.939Z,37.50
2024-05-09T11:29:54.110Z,37.20
2024-05-09T11:31:26.278Z,37.80
2024-05-09T11:32:59.077Z,38.00
2024-05-09T11:34:31.323Z,37.80
2024-05-09T11:36:03.655Z,37.50
2024-05-09T11:37:37.854Z,37.50
2024-05-09T11:39:10.030Z,37.50
2024-05-09T11:40:42.405Z,37.60
2024-05-09T11:42:14.568Z,37.70
2024-05-09T11:43:46.603Z,37.50
2024-05-09T11:45:18.646Z,37.30
2024-05-09T11:46:50.811Z,37.30
2024-05-09T11:48:23.478Z,37.00
2024-05-09T11:49:58.779Z,36.80
2024-05-09T11:51:30.876Z,37.00
2024-05-09T11:53:03.170Z,37.00
2024-05-09T11:54:35.424Z,36.90
2024-05-09T11:56:07.759Z,36.90
2024-05-09T11:57:39.971Z,37.10
2024-05-09T11:59:12.096Z,37.30
2024-05-09T12:00:44.712Z,36.80
2024-05-09T12:02:17.572Z,37.20
2024-05-09T12:03:51.352Z,36.40
2024-05-09T12:05:23.581Z,36.40
2024-05-09T12:06:55.895Z,36.30
2024-05-09T12:08:28.334Z,36.00
2024-05-09T12:10:00.422Z,36.00
2024-05-09T12:11:32.698Z,35.90
2024-05-09T12:13:06.805Z,36.00
2024-05-09T12:14:39.997Z,36.00
2024-05-09T12:16:12.081Z,36.00
2024-05-09T12:17:45.211Z,36.10
2024-05-09T12:19:18.278Z,36.40
2024-05-09T12:20:50.451Z,36.30
2024-05-09T12:22:22.489Z,36.50
2024-05-09T12:23:54.523Z,36.50
2024-05-09T12:25:26.643Z,36.40
2024-05-09T12:26:59.080Z,36.30
2024-05-09T12:28:31.224Z,36.30
2024-05-09T12:30:04.617Z,36.40
2024-05-09T12:31:39.139Z,36.50
2024-05-09T12:33:13.077Z,36.50
2024-05-09T12:34:45.702Z,36.70
2024-05-09T12:36:17.873Z,36.60
2024-05-09T12:37:49.975Z,36.20
2024-05-09T12:39:22.011Z,36.20
2024-05-09T12:40:54.488Z,36.30
2024-05-09T12:42:28.097Z,36.00
2024-05-09T12:44:01.944Z,35.80
2024-05-09T12:45:34.162Z,35.80
2024-05-09T12:47:06.260Z,35.70
2024-05-09T12:48:38.576Z,35.60
2024-05-09T12:50:21.778Z,35.50
2024-05-09T12:51:57.457Z,35.20
2024-05-09T12:53:29.480Z,35.00
2024-05-09T12:55:01.595Z,34.60
2024-05-09T12:56:33.809Z,34.90
2024-05-09T12:58:06.217Z,34.60
2024-05-09T12:59:38.406Z,34.70
2024-05-09T13:01:10.544Z,34.30
2024-05-09T13:02:42.682Z,34.50
2024-05-09T13:04:14.897Z,34.20
2024-05-09T13:05:47.316Z,33.80
2024-05-09T13:07:19.657Z,33.60
2024-05-09T13:08:51.923Z,33.90
2024-05-09T13:10:31.191Z,34.30
2024-05-09T13:12:05.737Z,33.60
2024-05-09T13:13:37.761Z,33.70
2024-05-09T13:15:09.768Z,33.20
2024-05-09T13:16:41.998Z,33.70
2024-05-09T13:18:14.191Z,33.40
2024-05-09T13:19:46.313Z,33.00
2024-05-09T13:21:18.326Z,32.40
2024-05-09T13:22:50.413Z,32.50
2024-05-09T13:24:22.451Z,32.60
2024-05-09T13:25:54.750Z,32.80
2024-05-09T13:27:26.838Z,33.00
2024-05-09T13:28:58.916Z,32.70
2024-05-09T13:30:39.130Z,32.70
2024-05-09T13:32:13.696Z,32.70
2024-05-09T13:33:45.995Z,32.60
2024-05-09T13:35:18.600Z,32.90
2024-05-09T13:36:50.769Z,32.00
2024-05-09T13:38:22.931Z,32.10
2024-05-09T13:39:55.169Z,32.10
2024-05-09T13:41:27.256Z,32.70
2024-05-09T13:42:59.455Z,31.80
2024-05-09T13:44:31.672Z,31.80
2024-05-09T13:46:04.258Z,31.80
2024-05-09T13:47:36.602Z,31.70
2024-05-09T13:49:11.755Z,31.90
2024-05-09T13:50:44.490Z,31.60
2024-05-09T13:52:17.161Z,31.20
2024-05-09T13:53:49.352Z,30.70
2024-05-09T13:55:21.423Z,30.50
2024-05-09T13:56:53.753Z,30.20
2024-05-09T13:58:26.298Z,30.40
2024-05-09T13:59:58.425Z,30.60
2024-05-09T14:01:30.574Z,30.80
2024-05-09T14:03:02.831Z,30.60
2024-05-09T14:04:35.041Z,30.50
2024-05-09T14:06:10.533Z,30.60
2024-05-09T14:07:44.345Z,30.60
2024-05-09T14:09:16.686Z,30.00
2024-05-09T14:10:49.386Z,30.00
2024-05-09T14:12:21.675Z,29.90
2024-05-09T14:13:53.786Z,29.90
2024-05-09T14:15:25.824Z,29.90
2024-05-09T14:16:57.920Z,29.90
2024-05-09T14:18:30.249Z,29.90
2024-05-09T14:20:02.998Z,29.90
2024-05-09T14:21:35.326Z,29.80
2024-05-09T14:23:07.396Z,29.60
2024-05-09T14:24:39.692Z,29.60
2024-05-09T14:26:12.007Z,29.60
2024-05-09T14:27:44.223Z,29.50
2024-05-09T14:29:16.218Z,29.50
2024-05-09T14:30:48.439Z,29.50
2024-05-09T14:32:20.748Z,29.40
2024-05-09T14:33:53.165Z,29.50
2024-05-09T14:35:25.289Z,29.50
2024-05-09T14:36:58.832Z,29.40
2024-05-09T14:38:30.958Z,29.20
2024-05-09T14:40:06.902Z,29.00
2024-05-09T14:41:40.417Z,28.90
2024-05-09T14:43:14.626Z,28.70
2024-05-09T14:44:47.153Z,28.40
2024-05-09T14:46:19.755Z,28.00
2024-05-09T14:47:51.941Z,28.10
2024-05-09T14:49:24.111Z,27.80
2024-05-09T14:50:56.111Z,27.60
2024-05-09T14:52:28.363Z,27.60
2024-05-09T14:54:00.362Z,27.40
2024-05-09T14:55:32.451Z,27.20
2024-05-09T14:57:05.132Z,27.20
2024-05-09T14:58:37.267Z,27.30
2024-05-09T15:00:17.430Z,27.60
2024-05-09T15:01:57.940Z,27.70
2024-05-09T15:03:30.130Z,27.90
2024-05-09T15:05:04.172Z,27.80
2024-05-09T15:06:40.634Z,27.70
2024-05-09T15:08:12.964Z,27.60
2024-05-09T15:09:45.125Z,27.80
2024-05-09T15:11:17.254Z,27.70
2024-05-09T15:12:49.438Z,27.60
2024-05-09T15:14:23.245Z,27.70
2024-05-09T15:15:55.833Z,27.50
2024-05-09T15:17:28.424Z,27.40
2024-05-09T15:19:01.161Z,26.90
2024-05-09T15:20:36.368Z,26.80
2024-05-09T15:22:11.690Z,26.80
2024-05-09T15:23:43.721Z,26.40
2024-05-09T15:25:15.993Z,26.90
2024-05-09T15:26:48.190Z,26.30
2024-05-09T15:28:20.612Z,26.10
2024-05-09T15:29:52.780Z,26.00
2024-05-09T15:31:24.933Z,25.70
2024-05-09T15:32:57.070Z,25.70
2024-05-09T15:34:29.961Z,25.60
2024-05-09T15:36:02.319Z,26.50
2024-05-09T15:37:34.444Z,26.00
2024-05-09T15:39:06.597Z,25.70
2024-05-09T15:40:40.568Z,26.10
2024-05-09T15:42:13.300Z,25.70
2024-05-09T15:43:45.328Z,25.40
2024-05-09T15:45:17.971Z,25.30
2024-05-09T15:46:51.559Z,25.20
2024-05-09T15:48:23.846Z,25.00
2024-05-09T15:49:56.071Z,25.00
2024-05-09T15:51:28.177Z,25.20
2024-05-09T15:53:00.234Z,25.30
2024-05-09T15:54:32.331Z,25.90
2024-05-09T15:56:04.860Z,25.80
2024-05-09T15:57:37.020Z,26.00
2024-05-09T15:59:09.143Z,26.00
2024-05-09T16:00:44.317Z,26.40
2024-05-09T16:02:18.153Z,26.40
2024-05-09T16:03:50.664Z,26.30
2024-05-09T16:05:23.597Z,26.50
2024-05-09T16:06:56.060Z,27.00
2024-05-09T16:08:28.242Z,26.60
2024-05-09T16:10:00.845Z,26.40
2024-05-09T16:11:32.897Z,27.10
2024-05-09T16:13:05.094Z,27.30
2024-05-09T16:14:37.174Z,27.00
2024-05-09T16:16:09.911Z,27.00
2024-05-09T16:17:42.170Z,27.10
2024-05-09T16:19:14.675Z,27.40
2024-05-09T16:20:49.466Z,27.80
2024-05-09T16:22:22.543Z,27.50
2024-05-09T16:23:54.565Z,28.00
2024-05-09T16:25:26.660Z,28.40
2024-05-09T16:26:58.897Z,28.10
2024-05-09T16:28:31.046Z,28.80
2024-05-09T16:30:07.230Z,28.90
2024-05-09T16:31:43.840Z,29.30
2024-05-09T16:34:51.314Z,30.20
2024-05-09T16:36:23.448Z,30.20
2024-05-09T16:37:55.683Z,30.70
2024-05-09T16:39:27.722Z,31.00
2024-05-09T16:40:59.866Z,30.80
2024-05-09T16:42:31.996Z,30.90
2024-05-09T16:44:04.211Z,31.70
2024-05-09T16:45:37.616Z,31.40
2024-05-09T16:47:09.876Z,31.70
2024-05-09T16:48:45.628Z,31.60
2024-05-09T16:50:25.772Z,31.90
2024-05-09T16:52:01.202Z,31.90
2024-05-09T16:53:33.225Z,32.20
2024-05-09T16:55:05.477Z,32.40
2024-05-09T16:56:37.687Z,32.80
2024-05-09T16:58:12.281Z,33.10
2024-05-09T16:59:45.150Z,33.30
2024-05-09T17:01:17.316Z,33.70
2024-05-09T17:02:50.292Z,33.70
2024-05-09T17:04:22.567Z,34.40
2024-05-09T17:05:54.993Z,34.70
2024-05-09T17:07:27.607Z,34.90
2024-05-09T17:09:08.288Z,34.80
2024-05-09T17:10:45.795Z,35.00
2024-05-09T17:12:18.204Z,35.60
2024-05-09T17:13:50.240Z,35.70
2024-05-09T17:15:22.318Z,35.80
2024-05-09T17:16:54.795Z,35.90
2024-05-09T17:18:27.803Z,36.50
2024-05-09T17:19:59.929Z,36.70
2024-05-09T17:21:32.040Z,37.20
2024-05-09T17:23:06.228Z,37.40
2024-05-09T17:24:38.724Z,37.40
2024-05-09T17:26:11.150Z,37.80
2024-05-09T17:27:43.486Z,38.30
2024-05-09T17:29:15.657Z,38.40
2024-05-09T17:30:48.546Z,38.30
2024-05-09T17:32:20.674Z,38.40
2024-05-09T17:33:53.161Z,38.30
2024-05-09T17:35:25.417Z,38.40
2024-05-09T17:36:57.584Z,39.30
2024-05-09T17:38:31.006Z,38.90
2024-05-09T17:40:16.619Z,39.30
2024-05-09T17:41:49.236Z,40.10
2024-05-09T17:43:21.606Z,40.10
2024-05-09T17:44:53.732Z,40.40
2024-05-09T17:46:25.968Z,40.90
2024-05-09T17:47:58.501Z,41.10
2024-05-09T17:49:30.849Z,41.40
2024-05-09T17:51:02.997Z,41.50
2024-05-09T17:52:35.018Z,41.60
2024-05-09T17:54:07.133Z,41.60
2024-05-09T17:55:40.493Z,41.80
2024-05-09T17:57:12.791Z,42.30
2024-05-09T17:58:46.374Z,42.30
2024-05-09T18:00:28.619Z,42.60
2024-05-09T18:02:08.934Z,42.50
2024-05-09T18:03:42.893Z,42.30
2024-05-09T18:05:15.393Z,42.60
2024-05-09T18:06:47.693Z,43.10
2024-05-09T18:08:19.848Z,43.60
2024-05-09T18:09:51.884Z,43.90
2024-05-09T18:11:25.342Z,43.90
2024-05-09T18:12:57.425Z,44.00
2024-05-09T18:14:29.554Z,43.90
2024-05-09T18:16:01.737Z,44.10
2024-05-09T18:17:34.707Z,44.30
2024-05-09T18:19:06.896Z,44.40
2024-05-09T18:20:44.007Z,44.50
2024-05-09T18:22:18.000Z,45.30
2024-05-09T18:23:52.049Z,44.70
2024-05-09T18:25:24.444Z,44.70
2024-05-09T18:26:56.553Z,45.00
2024-05-09T18:28:28.813Z,45.00
2024-05-09T18:30:01.047Z,45.00
2024-05-09T18:31:33.175Z,45.10
2024-05-09T18:33:07.672Z,45.30
2024-05-09T18:34:40.463Z,45.50
2024-05-09T18:36:12.727Z,45.50
2024-05-09T18:37:44.844Z,45.70
2024-05-09T18:39:17.188Z,45.80
2024-05-09T18:40:49.800Z,45.90
2024-05-09T18:42:22.136Z,45.90
2024-05-09T18:43:55.119Z,46.10
2024-05-09T18:45:28.647Z,46.20
2024-05-09T18:47:00.873Z,46.20
2024-05-09T18:48:33.794Z,46.20
2024-05-09T18:50:11.963Z,46.30
2024-05-09T18:51:49.553Z,46.40
2024-05-09T18:53:21.613Z,46.50
2024-05-09T18:54:53.712Z,46.70
2024-05-09T18:56:26.924Z,46.80
2024-05-09T18:57:59.108Z,46.90
2024-05-09T18:59:31.187Z,47.10
2024-05-09T19:01:03.583Z,47.20
2024-05-09T19:02:35.878Z,47.20
2024-05-09T19:04:08.317Z,47.30
2024-05-09T19:05:42.393Z,47.30
2024-05-09T19:07:16.992Z,47.60
2024-05-09T19:08:49.091Z,47.60
2024-05-09T19:10:23.063Z,47.60
2024-05-09T19:12:03.103Z,47.70
2024-05-09T19:13:35.207Z,47.70
2024-05-09T19:15:07.906Z,47.80
2024-05-09T19:16:41.346Z,48.00
2024-05-09T19:18:14.431Z,48.00
2024-05-09T19:19:48.795Z,48.10
2024-05-09T19:21:20.972Z,48.30
2024-05-09T19:22:53.040Z,48.40
2024-05-09T19:24:25.038Z,48.40
2024-05-09T19:25:57.275Z,48.40
2024-05-09T19:27:29.301Z,48.60
2024-05-09T19:29:01.406Z,48.70
2024-05-09T19:30:39.455Z,48.90
2024-05-09T19:32:14.142Z,48.90
2024-05-09T19:33:46.267Z,49.00
2024-05-09T19:35:18.390Z,49.10
2024-05-09T19:36:50.769Z,49.10
2024-05-09T19:38:22.991Z,49.30
2024-05-09T19:39:55.352Z,49.30
2024-05-09T19:41:27.453Z,49.40
2024-05-09T19:42:59.725Z,49.50
2024-05-09T19:44:31.906Z,49.70
2024-05-09T19:46:04.334Z,49.80
2024-05-09T19:47:36.602Z,49.80
2024-05-09T19:49:09.034Z,49.90
2024-05-09T19:50:44.149Z,49.90
2024-05-09T19:52:17.168Z,50.10
2024-05-09T19:53:50.638Z,50.10
2024-05-09T19:55:22.696Z,50.20
2024-05-09T19:56:56.543Z,50.20
2024-05-09T19:58:28.731Z,50.50
2024-05-09T20:00:00.902Z,50.30
2024-05-09T20:01:33.171Z,50.40
2024-05-09T20:03:06.113Z,50.50
2024-05-09T20:04:38.963Z,50.70
2024-05-09T20:06:11.178Z,50.60
2024-05-09T20:07:43.171Z,50.80
2024-05-09T20:09:15.593Z,50.80